Paxton, Nebraska
Current Conditions -  °F | °C
As of 6:35 AM on Thursday 18 Dec 2014 (Local Time) from KOGA Reporting Station
Haze Haze  
Wind Chill: 16°   Ceiling: 400
Heat Index: 24°   Visibility: 3mi
Dew Point: 23°   Wind: 6mph
Humidity: 98%   Direction: 280°W
Pressure: 30.06"   Gusts: NA
Location:  41.12°N, 101.36°W
Report Text: KOGA 181335Z AUTO 28005KT 3SM BR OVC004 M05/M05 A3006 RMK AO2 T10471050
Loading
Personal Weather Stations






























Interactive Weather Map New forecast layout! Learn more

10-Day Weather Forecast

Advertisements
Track Severe Weather on mobile